Time;durP1;ratioP1;P1;durP2;ratioP2;P2;SDS_P1;SDS_P2;PMS_P1;PMS_P2;Temp;Humidity;BMP_temperature;BMP_pressure;BME280_temperature;BME280_humidity;BME280_pressure;Samples;Min_cycle;Max_cycle;Signal;HPM_P1;HPM_P2
2022/10/20 00:01:01;;;;;;;6.50;2.73;;;12.80;68.50;;;15.42;52.00;102272.84;5013127;28;20298;-58
2022/10/20 00:03:28;;;;;;;3.97;2.47;;;12.80;68.40;;;15.44;51.67;102273.50;5013858;28;20644;-58
2022/10/20 00:06:07;;;;;;;3.63;2.40;;;12.90;68.30;;;15.42;51.88;102272.84;5012406;28;20191;-57
2022/10/20 00:08:35;;;;;;;4.87;2.53;;;12.90;68.10;;;15.42;51.76;102270.19;5014034;28;20682;-58
2022/10/20 00:11:04;;;;;;;7.07;2.67;;;12.80;67.70;;;15.40;51.59;102264.25;5015452;28;20640;-58
2022/10/20 00:13:31;;;;;;;3.43;2.83;;;12.80;67.90;;;15.40;51.61;102261.59;5032867;28;20248;-58
2022/10/20 00:15:59;;;;;;;5.10;2.77;;;12.80;67.90;;;15.38;51.34;102252.97;5033273;28;20198;-59
2022/10/20 00:18:26;;;;;;;5.60;2.30;;;12.80;67.80;;;15.38;51.51;102255.63;5033313;28;20186;-58
2022/10/20 00:20:54;;;;;;;4.77;2.87;;;12.80;67.70;;;15.36;51.00;102252.28;5032612;28;20218;-58
2022/10/20 00:23:21;;;;;;;5.37;2.40;;;12.80;67.80;;;15.36;51.30;102257.59;5033238;28;20209;-57
2022/10/20 00:26:01;;;;;;;3.87;2.70;;;12.80;67.80;;;15.33;51.12;102253.44;5033217;28;20191;-59
2022/10/20 00:28:28;;;;;;;4.50;2.50;;;12.80;67.60;;;15.34;51.40;102248.97;5033292;28;20194;-59
2022/10/20 00:30:55;;;;;;;6.43;2.20;;;12.70;67.50;;;15.33;51.23;102242.03;5032163;28;20221;-59
2022/10/20 00:33:22;;;;;;;4.57;2.70;;;12.70;67.60;;;15.34;51.17;102243.66;5032975;28;20190;-58
2022/10/20 00:35:49;;;;;;;3.83;2.37;;;12.70;67.30;;;15.34;51.31;102238.38;5033535;28;20202;-58
2022/10/20 00:38:17;;;;;;;3.93;2.40;;;12.70;67.30;;;15.34;51.38;102243.66;5033126;28;20194;-59
2022/10/20 00:40:51;;;;;;;2.67;2.47;;;12.70;67.80;;;15.34;51.18;102235.72;5031881;28;20233;-59
2022/10/20 00:43:18;;;;;;;4.63;2.43;;;12.70;67.40;;;15.35;51.13;102229.41;5033404;28;20190;-56
2022/10/20 00:45:54;;;;;;;3.37;2.13;;;12.80;67.30;;;15.33;50.88;102223.47;5032814;28;20241;-59
2022/10/20 00:48:34;;;;;;;4.07;2.43;;;12.80;67.20;;;15.30;51.01;102215.81;5033088;28;20630;-59
2022/10/20 00:51:01;;;;;;;3.57;2.43;;;12.80;67.30;;;15.32;50.91;102208.53;5032054;28;20198;-59
2022/10/20 00:53:29;;;;;;;3.37;2.73;;;12.70;66.90;;;15.31;50.72;102210.34;5032970;28;20226;-59
2022/10/20 00:55:59;;;;;;;4.53;2.43;;;12.70;66.70;;;15.29;50.85;102208.84;5032780;28;20241;-59
2022/10/20 00:58:27;;;;;;;3.60;2.30;;;12.70;66.80;;;15.26;50.76;102214.53;5013320;28;20199;-59
2022/10/20 01:00:58;;;;;;;3.43;1.97;;;12.70;66.60;;;15.21;50.67;102200.94;5031445;28;20226;-56
2022/10/20 01:03:35;;;;;;;3.90;2.30;;;12.60;66.60;;;15.14;50.69;102198.09;5033118;28;20198;-57
2022/10/20 01:06:03;;;;;;;3.20;2.17;;;12.60;66.80;;;15.13;50.86;102192.97;5032961;28;20194;-58
2022/10/20 01:08:30;;;;;;;3.70;2.20;;;12.50;66.90;;;15.10;51.02;102193.28;5032702;28;20659;-57
2022/10/20 01:11:14;;;;;;;5.40;2.30;;;12.50;67.00;;;15.06;51.03;102192.00;5032348;28;20214;-58
2022/10/20 01:13:59;;;;;;;5.23;2.40;;;12.50;67.00;;;15.05;50.73;102185.03;5032592;28;20202;-59
2022/10/20 01:16:38;;;;;;;3.53;2.10;;;12.50;66.80;;;15.01;50.80;102178.41;5032481;28;20550;-59
2022/10/20 01:19:33;;;;;;;4.90;2.40;;;12.50;66.90;;;14.95;50.71;102168.47;5032456;28;20205;-58
2022/10/20 01:22:22;;;;;;;7.17;2.47;;;12.40;66.70;;;14.90;50.95;102167.13;5031990;28;20225;-58
2022/10/20 01:25:11;;;;;;;2.50;2.03;;;12.40;67.00;;;14.90;50.92;102161.84;5033768;28;20211;-58
2022/10/20 01:27:43;;;;;;;5.30;2.50;;;12.40;66.90;;;14.93;50.91;102166.81;5036314;28;20194;-57
2022/10/20 01:30:14;;;;;;;4.03;2.30;;;12.40;66.90;;;14.93;50.73;102161.50;5035591;28;20191;-59
2022/10/20 01:33:08;;;;;;;6.20;2.10;;;12.40;66.60;;;14.86;50.86;102165.81;5035881;28;20728;-57
2022/10/20 01:35:51;;;;;;;2.40;1.67;;;12.30;66.80;;;14.84;51.01;102151.91;5036040;28;20249;-59
2022/10/20 01:38:29;;;;;;;5.77;2.40;;;12.30;66.90;;;14.83;51.15;102150.25;5035825;28;20671;-59
2022/10/20 01:41:07;;;;;;;4.93;2.30;;;12.30;67.10;;;14.84;51.06;102151.91;5034904;28;20218;-58
2022/10/20 01:43:40;;;;;;;3.50;2.17;;;12.30;67.20;;;14.86;51.09;102149.91;5015859;28;20202;-58
2022/10/20 01:46:11;;;;;;;5.30;2.37;;;12.30;67.10;;;14.90;51.03;102151.22;5015874;28;20195;-58
2022/10/20 01:48:40;;;;;;;5.43;2.30;;;12.30;66.90;;;14.95;50.53;102157.88;5015725;28;20655;-58
2022/10/20 01:51:09;;;;;;;2.60;2.30;;;12.30;66.50;;;14.93;50.68;102156.19;5034688;28;20268;-58
2022/10/20 01:53:36;;;;;;;4.00;2.10;;;12.30;66.70;;;14.93;50.99;102150.06;5035639;28;20194;-58
2022/10/20 01:56:05;;;;;;;6.30;2.50;;;12.30;66.80;;;14.96;50.73;102146.25;5035388;28;20198;-59
2022/10/20 01:59:04;;;;;;;2.07;1.90;;;12.40;66.80;;;14.93;50.55;102132.34;5035126;28;20601;-58
2022/10/20 02:01:57;;;;;;;5.13;2.23;;;12.40;66.60;;;14.91;50.83;102137.00;5035307;28;20644;-59
2022/10/20 02:04:34;;;;;;;5.67;2.00;;;12.40;66.70;;;14.93;50.42;102129.69;5035365;28;20226;-58
2022/10/20 02:07:12;;;;;;;5.57;2.60;;;12.40;66.60;;;14.90;50.54;102132.66;5035751;28;20194;-58
2022/10/20 02:09:47;;;;;;;3.07;2.40;;;12.40;66.40;;;14.88;50.34;102126.72;5035639;28;20194;-55
2022/10/20 02:12:21;;;;;;;5.30;2.47;;;12.30;66.20;;;14.87;50.58;102119.78;5035195;28;20252;-56
2022/10/20 02:14:52;;;;;;;3.97;2.27;;;12.30;66.60;;;14.89;50.78;102117.78;5035932;28;20192;-59
2022/10/20 02:17:20;;;;;;;4.30;2.10;;;12.30;66.60;;;14.91;50.51;102110.47;5035297;28;20716;-59
2022/10/20 02:19:52;;;;;;;3.50;2.17;;;12.30;66.30;;;14.91;50.58;102107.81;5035623;28;20198;-58
2022/10/20 02:22:20;;;;;;;2.63;2.37;;;12.30;66.00;;;14.89;50.40;102099.22;5035247;28;20245;-58
2022/10/20 02:24:48;;;;;;;2.13;1.97;;;12.30;66.20;;;14.89;50.57;102101.88;5035348;28;20197;-59
2022/10/20 02:27:23;;;;;;;3.33;2.23;;;12.30;66.50;;;14.89;50.58;102091.25;5035163;28;20206;-57
2022/10/20 02:29:56;;;;;;;4.07;2.00;;;12.30;66.40;;;14.88;50.27;102089.59;5035422;28;20186;-58
2022/10/20 02:32:24;;;;;;;6.50;2.70;;;12.40;66.00;;;14.88;50.53;102086.16;5035639;28;20195;-58
2022/10/20 02:34:51;;;;;;;3.93;2.40;;;12.30;66.00;;;14.87;50.48;102082.66;5034814;28;20199;-58
2022/10/20 02:37:18;;;;;;;3.03;2.23;;;12.30;65.90;;;14.87;50.23;102087.97;5034992;28;20217;-57
2022/10/20 02:39:45;;;;;;;5.23;1.90;;;12.30;66.00;;;14.84;50.46;102092.75;5034644;28;20214;-54
2022/10/20 02:42:12;;;;;;;2.63;2.43;;;12.30;66.00;;;14.81;50.58;102079.84;5034111;28;20223;-55
2022/10/20 02:44:39;;;;;;;4.27;2.47;;;12.30;66.20;;;14.80;50.56;102080.84;5034587;28;20195;-58
2022/10/20 02:47:07;;;;;;;3.80;2.27;;;12.20;66.00;;;14.76;50.32;102077.69;5034496;28;20245;-57
2022/10/20 02:49:34;;;;;;;4.70;2.27;;;12.20;65.80;;;14.72;50.50;102071.09;5034612;28;20265;-57
2022/10/20 02:52:01;;;;;;;6.00;2.23;;;12.20;65.90;;;14.68;50.60;102071.59;5034350;28;20214;-58
2022/10/20 02:54:28;;;;;;;2.23;2.00;;;12.10;65.90;;;14.61;50.64;102066.16;5034304;28;20241;-57
2022/10/20 02:56:55;;;;;;;4.83;2.20;;;12.10;66.20;;;14.58;50.71;102073.59;5034266;28;20201;-59
2022/10/20 02:59:22;;;;;;;5.03;2.70;;;12.00;66.50;;;14.54;51.06;102066.97;5034167;28;20244;-58
2022/10/20 03:01:51;;;;;;;3.60;1.90;;;12.00;66.80;;;14.51;50.77;102070.78;5033940;28;20613;-55
2022/10/20 03:04:19;;;;;;;7.07;2.57;;;11.90;66.40;;;14.48;50.86;102068.47;5034337;28;20195;-59
2022/10/20 03:06:46;;;;;;;6.67;2.43;;;11.90;66.60;;;14.44;50.99;102069.78;5034206;28;20191;-58
2022/10/20 03:09:13;;;;;;;2.93;2.13;;;11.90;66.60;;;14.40;51.07;102067.66;5034073;28;20198;-58
2022/10/20 03:11:40;;;;;;;3.20;2.23;;;11.80;66.90;;;14.37;51.07;102063.50;5034782;28;20261;-58
2022/10/20 03:14:07;;;;;;;4.80;2.13;;;11.80;66.90;;;14.35;51.15;102060.22;5033891;28;20725;-58
2022/10/20 03:16:34;;;;;;;4.03;2.20;;;11.80;67.00;;;14.34;51.09;102058.53;5034205;28;20252;-56
2022/10/20 03:19:01;;;;;;;4.60;2.20;;;11.70;67.00;;;14.31;51.15;102056.22;5033678;28;20244;-59
2022/10/20 03:21:34;;;;;;;4.77;2.47;;;11.80;67.10;;;14.29;51.10;102050.22;5013758;28;20211;-58
2022/10/20 03:24:01;;;;;;;4.07;2.37;;;11.70;67.00;;;14.29;51.32;102039.63;5014153;28;20195;-59
2022/10/20 03:26:28;;;;;;;4.60;2.57;;;11.70;67.20;;;14.30;51.08;102041.34;5014878;28;20187;-58
2022/10/20 03:28:55;;;;;;;4.00;2.20;;;11.70;66.70;;;14.29;51.13;102038.84;5031573;28;20198;-59
2022/10/20 03:31:22;;;;;;;4.70;2.27;;;11.70;66.90;;;14.27;50.99;102041.63;5033257;28;20275;-58
2022/10/20 03:33:49;;;;;;;3.10;1.80;;;11.70;66.80;;;14.24;50.78;102037.50;5032937;28;20241;-58
2022/10/20 03:36:16;;;;;;;4.47;2.37;;;11.70;66.50;;;14.20;50.76;102030.88;5033753;28;20190;-57
2022/10/20 03:38:44;;;;;;;1.80;1.70;;;11.60;66.30;;;14.14;51.03;102030.72;5033213;28;20256;-57
2022/10/20 03:41:11;;;;;;;4.37;1.93;;;11.60;67.10;;;14.12;51.58;102027.41;5032905;28;20214;-58
2022/10/20 03:43:38;;;;;;;7.03;2.37;;;11.60;67.40;;;14.09;50.92;102015.34;5033678;28;20226;-57
2022/10/20 03:46:08;;;;;;;3.43;2.23;;;11.50;66.60;;;14.01;50.73;102010.03;5033543;28;20202;-57
2022/10/20 03:48:37;;;;;;;2.67;2.13;;;11.50;66.20;;;13.92;51.06;102002.25;5033104;28;20203;-58
2022/10/20 03:51:05;;;;;;;3.70;2.60;;;11.40;66.50;;;13.84;51.16;102008.38;5032791;28;20279;-59
2022/10/20 03:53:32;;;;;;;4.93;2.73;;;11.40;66.70;;;13.73;51.53;102000.75;5033543;28;20561;-57
2022/10/20 03:56:05;;;;;;;6.00;2.77;;;11.30;66.90;;;13.64;51.90;101990.31;5033476;28;20199;-57
2022/10/20 03:58:32;;;;;;;2.93;2.40;;;11.20;67.40;;;13.57;52.11;101985.66;5033143;28;20539;-57
2022/10/20 04:00:59;;;;;;;3.77;2.37;;;11.10;67.60;;;13.54;52.38;101987.81;5032690;28;20218;-58
2022/10/20 04:03:26;;;;;;;3.13;2.27;;;11.10;68.70;;;13.49;52.39;101980.38;5033345;28;20592;-58
2022/10/20 04:05:53;;;;;;;2.47;2.17;;;11.10;68.00;;;13.47;52.61;101982.38;5033639;28;20194;-58
2022/10/20 04:08:20;;;;;;;3.23;2.60;;;11.00;68.00;;;13.46;52.66;101975.41;5032663;28;20708;-57
2022/10/20 04:10:47;;;;;;;3.33;2.63;;;11.00;68.20;;;13.44;52.75;101982.69;5032642;28;20211;-58
2022/10/20 04:13:15;;;;;;;4.00;2.43;;;11.00;68.30;;;13.34;52.94;101976.72;5033175;28;20268;-57
2022/10/20 04:15:42;;;;;;;5.77;2.77;;;10.90;68.30;;;13.28;52.85;101965.94;5032863;28;20253;-59
2022/10/20 04:18:09;;;;;;;4.20;2.33;;;10.90;68.50;;;13.26;52.88;101971.41;5032802;28;20241;-59
2022/10/20 04:20:36;;;;;;;3.97;2.73;;;10.90;68.60;;;13.23;53.27;101961.16;5032616;28;20218;-57
2022/10/20 04:23:08;;;;;;;3.70;2.43;;;10.80;68.80;;;13.23;53.34;101955.88;5047836;28;20193;-58
2022/10/20 04:25:38;;;;;;;2.87;2.40;;;10.80;69.00;;;13.26;53.30;101952.06;5032923;28;20221;-58
2022/10/20 04:28:05;;;;;;;3.60;2.83;;;10.70;69.30;;;13.28;53.35;101956.22;5032649;28;20199;-57
2022/10/20 04:30:33;;;;;;;6.10;2.60;;;10.80;69.20;;;13.28;53.36;101945.63;5032385;28;20214;-58
2022/10/20 04:33:00;;;;;;;5.07;2.97;;;10.70;69.30;;;13.29;53.26;101949.09;5032914;28;20236;-58
2022/10/20 04:35:27;;;;;;;4.13;3.00;;;10.70;69.30;;;13.26;53.13;101944.16;5032091;28;20196;-56
2022/10/20 04:37:54;;;;;;;3.00;2.37;;;10.80;69.20;;;13.25;53.42;101924.81;5032194;28;20489;-56
2022/10/20 04:40:21;;;;;;;4.60;3.23;;;10.80;69.20;;;13.25;53.53;101910.75;5032215;28;20218;-59
2022/10/20 04:42:48;;;;;;;7.27;2.43;;;10.70;69.40;;;13.25;53.25;101905.47;5032269;28;20216;-58
2022/10/20 04:45:15;;;;;;;2.93;2.63;;;10.80;69.20;;;13.27;53.22;101908.75;5033149;28;20339;-57
2022/10/20 04:47:43;;;;;;;2.90;2.63;;;10.80;69.30;;;13.27;53.60;101901.66;5047667;28;20206;-59
2022/10/20 04:50:10;;;;;;;4.60;2.60;;;10.70;69.40;;;13.31;53.70;101899.53;5032512;28;20194;-56
2022/10/20 04:52:37;;;;;;;4.60;2.80;;;10.80;69.60;;;13.35;53.08;101912.25;5032616;28;20264;-56
2022/10/20 04:55:05;;;;;;;5.47;2.80;;;10.80;70.10;;;13.37;53.09;101915.56;5032770;28;20625;-59
2022/10/20 04:57:32;;;;;;;3.93;2.60;;;10.80;69.20;;;13.37;52.99;101909.44;5032969;28;20237;-59
2022/10/20 05:00:00;;;;;;;4.93;2.57;;;10.80;69.20;;;13.38;52.89;101896.03;5034117;28;20194;-58
2022/10/20 05:02:27;;;;;;;3.17;2.37;;;10.80;69.20;;;13.32;52.93;101896.72;5036670;28;20625;-59
2022/10/20 05:04:55;;;;;;;5.10;2.43;;;10.80;68.70;;;13.25;53.09;101895.72;5035518;28;20207;-57
2022/10/20 05:07:22;;;;;;;2.40;2.10;;;10.80;68.70;;;13.21;53.07;101886.47;5036602;28;20199;-57
2022/10/20 05:09:49;;;;;;;3.13;2.30;;;10.80;68.80;;;13.17;53.04;101879.84;5036692;28;20553;-58
2022/10/20 05:12:16;;;;;;;4.20;2.67;;;10.70;68.80;;;13.15;53.43;101889.75;5036602;28;20214;-57
2022/10/20 05:14:42;;;;;;;2.73;1.90;;;10.70;69.00;;;13.13;53.35;101894.38;5035644;28;20256;-59
2022/10/20 05:17:09;;;;;;;4.57;2.67;;;10.70;68.90;;;13.13;53.09;101880.31;5035771;28;20305;-59
2022/10/20 05:19:36;;;;;;;5.80;2.87;;;10.60;69.10;;;13.11;53.48;101877.03;5035730;28;20252;-57
2022/10/20 05:22:05;;;;;;;3.13;2.33;;;10.60;69.20;;;13.13;53.47;101861.81;5035341;28;20222;-58
2022/10/20 05:24:32;;;;;;;4.57;2.63;;;10.60;69.50;;;13.17;53.41;101863.97;5035933;28;20186;-58
2022/10/20 05:26:58;;;;;;;4.23;2.87;;;10.60;69.80;;;13.20;53.26;101868.94;5035453;28;20187;-59
2022/10/20 05:29:25;;;;;;;3.90;2.53;;;10.60;69.50;;;13.22;53.08;101855.53;5035296;28;20592;-59
2022/10/20 05:31:52;;;;;;;3.50;2.43;;;10.60;69.30;;;13.22;53.28;101851.09;5035125;28;20332;-58
2022/10/20 05:34:19;;;;;;;4.37;2.83;;;10.70;69.30;;;13.20;53.15;101849.59;5035071;28;20593;-59
2022/10/20 05:36:46;;;;;;;5.27;2.73;;;10.70;69.40;;;13.21;53.40;101857.38;5035127;28;20198;-59
2022/10/20 05:39:15;;;;;;;4.50;2.47;;;10.70;69.60;;;13.22;53.16;101851.09;5035064;28;20202;-57
2022/10/20 05:41:41;;;;;;;4.77;2.80;;;10.70;69.40;;;13.25;53.32;101848.13;5034216;28;20245;-59
2022/10/20 05:44:11;;;;;;;5.37;2.93;;;10.70;69.50;;;13.24;53.12;101843.81;5035463;28;20190;-59
2022/10/20 05:46:40;;;;;;;6.13;2.90;;;10.70;69.50;;;13.25;53.07;101842.00;5035526;28;20321;-56
2022/10/20 05:49:12;;;;;;;5.17;3.53;;;10.70;69.20;;;13.24;52.88;101841.16;5035082;28;20225;-59
2022/10/20 05:51:40;;;;;;;7.03;2.70;;;10.70;69.10;;;13.22;52.85;101845.81;5034952;28;20210;-58
2022/10/20 05:54:11;;;;;;;5.47;2.73;;;10.70;68.80;;;13.21;52.97;101840.69;5035007;28;20202;-59
2022/10/20 05:56:40;;;;;;;5.27;2.87;;;10.70;69.00;;;13.21;52.98;101844.16;5033956;28;20252;-59
2022/10/20 05:59:08;;;;;;;4.50;2.80;;;10.70;69.00;;;13.18;52.97;101841.00;5034672;28;20249;-58
2022/10/20 06:01:46;;;;;;;3.87;2.50;;;10.70;68.80;;;13.20;53.11;101841.66;5034121;28;20760;-59
2022/10/20 06:04:15;;;;;;;6.47;2.63;;;10.70;68.90;;;13.19;52.92;101851.41;5034646;28;20183;-59
2022/10/20 06:06:43;;;;;;;2.93;2.20;;;10.70;69.10;;;13.20;53.05;101844.31;5034590;28;20248;-59
2022/10/20 06:09:11;;;;;;;11.83;2.90;;;10.70;69.10;;;13.25;52.77;101847.28;5034354;28;20203;-59
2022/10/20 06:11:40;;;;;;;3.40;2.60;;;10.70;69.10;;;13.23;52.92;101839.53;5033648;28;20214;-56
2022/10/20 06:14:08;;;;;;;4.87;2.73;;;10.70;69.00;;;13.25;52.87;101853.41;5034750;28;20213;-60
2022/10/20 06:16:35;;;;;;;3.23;2.47;;;10.70;69.10;;;13.26;52.95;101844.50;5035006;28;20260;-59
2022/10/20 06:19:04;;;;;;;3.10;2.20;;;10.70;69.00;;;13.23;52.83;101841.34;5037293;28;20202;-59
2022/10/20 06:21:33;;;;;;;5.23;3.07;;;10.70;68.80;;;13.19;53.02;101848.75;5034939;28;20210;-59
2022/10/20 06:24:03;;;;;;;4.53;2.50;;;10.60;68.80;;;13.23;53.03;101844.00;5035873;28;20191;-56
2022/10/20 06:26:35;;;;;;;3.40;2.70;;;10.70;69.20;;;13.24;53.38;101846.47;5036155;28;20223;-58
2022/10/20 06:29:05;;;;;;;3.83;2.37;;;10.70;69.10;;;13.23;52.89;101842.19;5035514;28;20190;-58
2022/10/20 06:31:34;;;;;;;5.63;2.80;;;10.70;69.10;;;13.27;52.98;101835.56;5034662;28;20268;-58
2022/10/20 06:34:05;;;;;;;7.23;2.33;;;10.70;69.10;;;13.28;53.10;101836.41;5034688;28;20240;-58
2022/10/20 06:36:34;;;;;;;4.43;2.77;;;10.70;69.10;;;13.28;52.89;101829.31;5036467;28;20233;-59
2022/10/20 06:39:05;;;;;;;7.00;3.10;;;10.70;69.10;;;13.31;53.07;101834.22;5034664;28;20635;-58
2022/10/20 06:41:33;;;;;;;3.33;2.50;;;10.80;69.30;;;13.28;53.14;101820.53;5034075;28;20233;-58
2022/10/20 06:44:00;;;;;;;4.83;3.00;;;10.70;69.10;;;13.21;53.38;101816.91;5034401;28;20628;-59
2022/10/20 06:46:30;;;;;;;3.83;2.63;;;10.80;69.30;;;13.22;53.32;101807.97;5034287;28;20256;-59
2022/10/20 06:48:59;;;;;;;2.90;2.47;;;10.70;69.40;;;13.23;53.31;101802.53;5034077;28;20265;-56
2022/10/20 06:51:27;;;;;;;3.30;2.60;;;10.70;69.50;;;13.27;53.50;101809.13;5034036;28;20740;-59
2022/10/20 06:53:54;;;;;;;2.87;2.67;;;10.80;69.80;;;13.32;53.57;101804.16;5034021;28;20305;-58
2022/10/20 06:56:23;;;;;;;4.90;2.10;;;10.80;69.90;;;13.33;53.36;101813.75;5034536;28;20245;-58
2022/10/20 06:58:53;;;;;;;5.30;2.57;;;10.80;69.80;;;13.32;53.46;101806.81;5033871;28;20632;-61
2022/10/20 07:01:23;;;;;;;2.60;2.37;;;10.80;69.70;;;13.38;53.50;101814.06;5033653;28;20292;-60
2022/10/20 07:03:55;;;;;;;10.00;3.00;;;10.80;69.90;;;13.41;53.49;101813.75;5032555;28;20686;-58
2022/10/20 07:06:29;;;;;;;4.80;2.70;;;10.90;70.10;;;13.44;53.43;101805.47;5033434;28;20198;-58
2022/10/20 07:08:58;;;;;;;3.00;2.50;;;10.90;70.20;;;13.42;53.67;101796.06;5033774;28;20248;-55
2022/10/20 07:11:28;;;;;;;3.77;2.77;;;10.90;70.30;;;13.42;53.90;101790.78;5033246;28;20280;-58
2022/10/20 07:13:57;;;;;;;5.70;2.30;;;10.90;70.30;;;13.49;53.79;101782.00;5033765;28;20194;-56
2022/10/20 07:16:28;;;;;;;3.40;2.80;;;11.00;70.40;;;13.52;53.54;101789.63;5034158;28;20186;-57
2022/10/20 07:18:56;;;;;;;5.00;2.33;;;11.00;70.20;;;13.60;53.74;101787.94;5034089;28;20635;-58
2022/10/20 07:21:26;;;;;;;4.83;2.77;;;11.10;70.30;;;13.64;53.47;101774.22;5033954;28;20218;-57
2022/10/20 07:24:02;;;;;;;3.37;2.60;;;11.10;70.00;;;13.75;53.56;101771.19;5033166;28;20560;-59
2022/10/20 07:26:32;;;;;;;3.40;2.90;;;11.20;70.20;;;13.89;53.16;101770.50;5033706;28;20194;-59
2022/10/20 07:29:00;;;;;;;4.30;2.50;;;11.20;70.20;;;13.94;53.06;101754.94;5032709;28;20340;-58
2022/10/20 07:31:33;;;;;;;5.67;2.47;;;11.30;69.70;;;13.97;52.93;101743.19;5032029;28;20226;-59
2022/10/20 07:34:03;;;;;;;5.27;2.97;;;11.30;69.60;;;13.94;52.89;101738.22;5032228;28;20278;-59
2022/10/20 07:36:51;;;;;;;3.83;2.77;;;11.40;69.30;;;14.03;52.77;101745.13;5033453;28;20249;-57
2022/10/20 07:39:19;;;;;;;5.03;3.77;;;11.50;69.40;;;14.06;52.81;101744.78;5033221;28;20195;-58
2022/10/20 07:41:46;;;;;;;4.33;3.40;;;11.50;69.20;;;14.08;52.44;101750.72;5032444;28;20527;-57
2022/10/20 07:44:15;;;;;;;5.07;3.23;;;11.50;68.70;;;14.11;52.48;101739.81;5033594;28;20558;-58
2022/10/20 07:46:42;;;;;;;5.73;3.73;;;11.60;68.80;;;14.14;52.03;101744.75;5033446;28;20186;-57
2022/10/20 07:49:11;;;;;;;7.50;3.70;;;11.60;68.40;;;14.05;52.02;101740.47;5033155;28;20570;-58
2022/10/20 07:51:58;;;;;;;6.53;4.07;;;11.60;68.00;;;14.00;52.46;101737.56;5032950;28;20238;-57
2022/10/20 07:54:25;;;;;;;6.57;3.37;;;11.60;68.20;;;13.92;52.67;101724.34;5032691;28;20204;-58
2022/10/20 07:56:52;;;;;;;7.80;4.00;;;11.60;68.00;;;14.08;52.42;101729.56;5032030;28;20593;-57
2022/10/20 07:59:19;;;;;;;6.60;3.60;;;11.60;68.30;;;14.24;52.29;101734.75;5032814;28;20248;-58
2022/10/20 08:01:46;;;;;;;5.80;3.70;;;11.70;68.20;;;14.30;51.66;101723.53;5032731;28;20263;-59
2022/10/20 08:04:15;;;;;;;6.67;3.93;;;11.80;67.90;;;14.37;51.50;101726.28;5033152;28;20238;-57
2022/10/20 08:06:42;;;;;;;7.13;4.13;;;11.80;67.60;;;14.38;51.41;101731.41;5032946;28;20266;-57
2022/10/20 08:09:10;;;;;;;4.27;3.87;;;11.80;67.30;;;14.31;51.27;101725.16;5032074;28;20248;-59
2022/10/20 08:11:37;;;;;;;10.97;4.40;;;11.80;67.00;;;14.24;51.54;101726.81;5032343;28;20264;-57
2022/10/20 08:14:04;;;;;;;6.53;3.40;;;11.90;67.20;;;14.26;51.68;101732.78;5033020;28;20269;-54
2022/10/20 08:16:31;;;;;;;4.93;3.77;;;11.90;67.20;;;14.38;51.42;101726.09;5032630;28;20198;-58
2022/10/20 08:19:12;;;;;;;5.30;4.27;;;12.00;67.50;;;14.43;51.41;101729.06;5031329;28;20202;-59
2022/10/20 08:21:55;;;;;;;8.27;3.83;;;12.00;67.10;;;14.52;51.39;101724.56;5031752;28;20291;-58
2022/10/20 08:24:22;;;;;;;5.23;3.77;;;12.00;67.00;;;14.63;51.27;101724.97;5032567;28;20218;-58
2022/10/20 08:26:49;;;;;;;6.37;3.93;;;12.10;67.00;;;14.60;50.85;101725.31;5033044;28;20242;-56
2022/10/20 08:29:16;;;;;;;5.17;3.60;;;12.10;66.60;;;14.65;50.99;101730.91;5031996;28;20198;-57
2022/10/20 08:31:43;;;;;;;6.57;4.10;;;12.10;66.80;;;14.75;50.92;101728.03;5032083;28;20222;-57
2022/10/20 08:34:10;;;;;;;3.97;3.57;;;12.20;66.80;;;14.84;50.94;101722.47;5033389;28;20191;-56
2022/10/20 08:36:37;;;;;;;5.47;3.73;;;12.30;66.60;;;14.89;50.12;101714.81;5036705;28;20262;-58
2022/10/20 08:39:06;;;;;;;4.90;3.33;;;12.30;66.10;;;14.98;50.45;101720.03;5036349;28;20206;-59
2022/10/20 08:41:39;;;;;;;4.80;3.97;;;12.40;66.20;;;15.10;49.85;101710.66;5036131;28;20210;-58
2022/10/20 08:44:31;;;;;;;4.10;3.70;;;12.50;66.00;;;15.22;49.75;101719.81;5037272;28;20237;-57
2022/10/20 08:47:02;;;;;;;7.03;3.90;;;12.60;65.70;;;15.31;49.40;101700.16;5036323;28;20206;-59
2022/10/20 08:49:33;;;;;;;6.10;4.03;;;12.60;65.40;;;15.35;49.45;101696.16;5036005;28;20651;-59
2022/10/20 08:52:01;;;;;;;8.90;4.03;;;12.70;65.10;;;15.47;49.16;101684.13;5036663;28;20210;-58
2022/10/20 08:54:33;;;;;;;6.10;4.80;;;12.80;65.00;;;15.51;48.45;101682.75;5036573;28;20198;-58
2022/10/20 08:57:00;;;;;;;6.80;4.30;;;12.90;64.00;;;15.62;48.26;101694.75;5036862;28;20214;-58
2022/10/20 08:59:33;;;;;;;4.63;4.20;;;13.10;63.50;;;15.72;48.15;101689.94;5035743;28;20194;-59
2022/10/20 09:02:01;;;;;;;6.90;4.20;;;13.20;63.00;;;15.82;47.93;101680.72;5035877;28;20639;-57
2022/10/20 09:04:37;;;;;;;6.37;4.23;;;13.40;62.40;;;15.88;47.35;101690.56;5035856;28;20309;-58
2022/10/20 09:07:19;;;;;;;5.87;3.80;;;13.50;62.00;;;15.85;47.48;101683.00;5036259;28;20216;-58
2022/10/20 09:09:47;;;;;;;4.17;3.77;;;13.50;61.50;;;16.06;46.99;101683.03;5036212;28;20646;-59
2022/10/20 09:12:16;;;;;;;6.20;4.40;;;13.60;61.20;;;16.30;46.70;101681.03;5035877;28;20238;-57
2022/10/20 09:14:43;;;;;;;11.63;4.40;;;13.80;61.30;;;16.74;46.01;101676.38;5034660;28;20252;-58
2022/10/20 09:17:16;;;;;;;5.57;4.00;;;14.00;61.10;;;17.10;45.06;101677.09;5035594;28;20194;-58
2022/10/20 09:19:51;;;;;;;4.63;3.63;;;14.30;59.90;;;17.67;43.98;101668.84;5016264;28;20211;-57
2022/10/20 09:22:27;;;;;;;7.27;3.70;;;14.70;59.50;;;17.59;43.77;101666.34;5016403;28;20261;-59
2022/10/20 09:25:04;;;;;;;6.77;3.77;;;15.00;58.10;;;17.46;43.63;101645.78;5023159;28;20248;-58
2022/10/20 09:27:35;;;;;;;4.93;3.87;;;15.00;57.60;;;17.39;44.10;101638.78;5035794;28;20249;-59
2022/10/20 09:30:15;;;;;;;4.10;3.70;;;15.00;57.60;;;17.15;44.18;101637.41;5037054;28;20631;-57
2022/10/20 09:32:43;;;;;;;4.63;3.90;;;14.90;57.70;;;17.03;44.70;101633.66;5039008;28;20213;-55
2022/10/20 09:35:35;;;;;;;7.17;4.03;;;14.80;58.00;;;16.81;45.17;101640.84;5041041;28;20202;-57
2022/10/20 09:38:18;;;;;;;5.30;3.83;;;14.60;58.50;;;16.76;45.13;101631.81;5031144;28;20208;-58
2022/10/20 09:41:09;;;;;;;4.73;4.03;;;14.50;58.70;;;16.66;45.73;101626.03;5038477;28;20218;-59
2022/10/20 09:43:40;;;;;;;4.60;3.90;;;14.40;59.10;;;16.64;45.71;101622.75;5020474;28;20214;-59
2022/10/20 09:46:10;;;;;;;5.50;3.97;;;14.30;59.30;;;16.65;45.81;101608.41;5034732;28;20515;-60
2022/10/20 09:48:45;;;;;;;4.43;4.00;;;14.30;59.80;;;16.70;45.81;101621.97;5035380;28;20244;-58
2022/10/20 09:51:18;;;;;;;4.63;4.10;;;14.30;60.00;;;16.82;45.97;101621.25;5035328;28;20264;-58
2022/10/20 09:53:54;;;;;;;4.57;4.13;;;14.30;60.20;;;16.92;45.88;101599.63;5035566;28;20285;-57
2022/10/20 09:56:33;;;;;;;7.80;4.27;;;14.30;60.20;;;17.16;45.55;101599.16;5034366;28;20241;-56
2022/10/20 09:59:05;;;;;;;5.67;4.00;;;14.40;60.20;;;17.29;45.16;101591.25;5035025;28;20679;-57
2022/10/20 10:01:32;;;;;;;5.43;3.87;;;14.50;60.00;;;17.36;45.19;101584.09;5034481;28;20214;-55
2022/10/20 10:04:00;;;;;;;5.53;4.83;;;14.60;59.90;;;17.42;44.77;101585.97;5035395;28;20678;-59
2022/10/20 10:06:45;;;;;;;4.70;4.30;;;14.70;59.60;;;17.35;44.90;101590.44;5037596;28;20191;-59
2022/10/20 10:09:29;;;;;;;5.90;4.63;;;14.70;59.60;;;17.40;44.92;101593.31;5034199;28;20268;-58
2022/10/20 10:12:02;;;;;;;8.27;4.50;;;14.80;59.70;;;17.53;45.24;101603.25;5034602;28;20217;-57
2022/10/20 10:14:32;;;;;;;6.67;4.50;;;14.90;59.90;;;17.49;44.93;101596.66;5034674;28;20210;-59
2022/10/20 10:17:00;;;;;;;9.63;5.60;;;14.80;59.40;;;17.49;45.12;101597.50;5034321;28;20210;-59
2022/10/20 10:19:30;;;;;;;7.17;4.67;;;14.90;59.70;;;17.60;44.96;101593.44;5033857;28;20183;-58
2022/10/20 10:22:01;;;;;;;6.33;4.77;;;15.00;59.70;;;17.76;45.14;101578.97;5034318;28;20686;-56
2022/10/20 10:24:42;;;;;;;7.97;4.57;;;15.00;59.50;;;17.76;44.77;101581.63;5034595;28;20264;-58
2022/10/20 10:27:24;;;;;;;6.20;4.90;;;15.10;60.00;;;17.82;44.92;101576.31;5033592;28;20642;-59